sensor_id;sensor_type;location;lat;lon;timestamp;pressure;altitude;pressure_sealevel;temperature;humidity
21863;BME280;11096;51.338;12.524;2023-02-17T00:00:35;100584.19;;;10.62;67.81
21863;BME280;11096;51.338;12.524;2023-02-17T00:03:01;100583.97;;;10.79;67.89
21863;BME280;11096;51.338;12.524;2023-02-17T00:05:26;100586.53;;;10.93;67.98
21863;BME280;11096;51.338;12.524;2023-02-17T00:07:52;100585.78;;;10.91;67.63
21863;BME280;11096;51.338;12.524;2023-02-17T00:10:18;100587.66;;;10.89;67.65
21863;BME280;11096;51.338;12.524;2023-02-17T00:12:44;100591.63;;;10.95;67.67
21863;BME280;11096;51.338;12.524;2023-02-17T00:15:10;100588.56;;;11.03;67.79
21863;BME280;11096;51.338;12.524;2023-02-17T00:17:35;100582.75;;;11.12;67.54
21863;BME280;11096;51.338;12.524;2023-02-17T00:20:01;100573.34;;;10.96;67.31
21863;BME280;11096;51.338;12.524;2023-02-17T00:22:26;100576.94;;;11.08;67.41
21863;BME280;11096;51.338;12.524;2023-02-17T00:24:52;100568.38;;;11.06;66.84
21863;BME280;11096;51.338;12.524;2023-02-17T00:27:17;100566.31;;;11.11;67.12
21863;BME280;11096;51.338;12.524;2023-02-17T00:29:43;100560.91;;;11.14;67.08
21863;BME280;11096;51.338;12.524;2023-02-17T00:32:09;100563.50;;;11.14;66.76
21863;BME280;11096;51.338;12.524;2023-02-17T00:34:35;100561.34;;;11.21;67.90
21863;BME280;11096;51.338;12.524;2023-02-17T00:37:00;100561.53;;;11.05;69.65
21863;BME280;11096;51.338;12.524;2023-02-17T00:39:26;100561.94;;;10.85;72.42
21863;BME280;11096;51.338;12.524;2023-02-17T00:41:51;100559.06;;;10.89;73.47
21863;BME280;11096;51.338;12.524;2023-02-17T00:44:19;100546.72;;;10.93;73.71
21863;BME280;11096;51.338;12.524;2023-02-17T00:46:46;100541.44;;;10.80;72.76
21863;BME280;11096;51.338;12.524;2023-02-17T00:49:21;100542.88;;;10.99;71.32
21863;BME280;11096;51.338;12.524;2023-02-17T00:51:47;100540.34;;;10.70;71.16
21863;BME280;11096;51.338;12.524;2023-02-17T00:54:14;100541.25;;;10.83;70.63
21863;BME280;11096;51.338;12.524;2023-02-17T00:56:40;100543.31;;;10.78;70.48
21863;BME280;11096;51.338;12.524;2023-02-17T00:59:06;100535.84;;;10.86;70.04
21863;BME280;11096;51.338;12.524;2023-02-17T01:01:31;100533.88;;;10.90;70.20
21863;BME280;11096;51.338;12.524;2023-02-17T01:03:57;100527.09;;;10.87;69.75
21863;BME280;11096;51.338;12.524;2023-02-17T01:06:28;100532.59;;;11.10;69.71
21863;BME280;11096;51.338;12.524;2023-02-17T01:08:55;100532.78;;;11.07;69.63
21863;BME280;11096;51.338;12.524;2023-02-17T01:11:23;100528.88;;;11.14;69.21
21863;BME280;11096;51.338;12.524;2023-02-17T01:13:49;100524.75;;;10.70;69.33
21863;BME280;11096;51.338;12.524;2023-02-17T01:16:23;100518.50;;;10.31;76.33
21863;BME280;11096;51.338;12.524;2023-02-17T01:18:49;100511.56;;;10.31;75.60
21863;BME280;11096;51.338;12.524;2023-02-17T01:21:20;100507.34;;;10.58;75.46
21863;BME280;11096;51.338;12.524;2023-02-17T01:23:51;100512.50;;;10.72;75.74
21863;BME280;11096;51.338;12.524;2023-02-17T01:26:20;100516.31;;;10.66;78.21
21863;BME280;11096;51.338;12.524;2023-02-17T01:28:46;100515.19;;;10.70;79.58
21863;BME280;11096;51.338;12.524;2023-02-17T01:31:13;100516.63;;;10.89;77.49
21863;BME280;11096;51.338;12.524;2023-02-17T01:33:39;100509.94;;;10.85;76.02
21863;BME280;11096;51.338;12.524;2023-02-17T01:36:06;100500.84;;;11.05;75.81
21863;BME280;11096;51.338;12.524;2023-02-17T01:38:33;100495.47;;;11.08;75.67
21863;BME280;11096;51.338;12.524;2023-02-17T01:40:59;100503.56;;;11.03;76.21
21863;BME280;11096;51.338;12.524;2023-02-17T01:43:24;100499.09;;;11.05;76.72
21863;BME280;11096;51.338;12.524;2023-02-17T01:48:28;100500.91;;;11.17;77.52
21863;BME280;11096;51.338;12.524;2023-02-17T01:51:22;100494.22;;;11.13;76.85
21863;BME280;11096;51.338;12.524;2023-02-17T01:53:54;100493.34;;;10.73;75.84
21863;BME280;11096;51.338;12.524;2023-02-17T01:56:22;100486.41;;;11.01;76.23
21863;BME280;11096;51.338;12.524;2023-02-17T01:58:55;100484.84;;;10.98;76.70
21863;BME280;11096;51.338;12.524;2023-02-17T02:01:22;100492.19;;;10.91;76.22
21863;BME280;11096;51.338;12.524;2023-02-17T02:03:50;100493.44;;;10.86;75.93
21863;BME280;11096;51.338;12.524;2023-02-17T02:06:19;100477.66;;;11.02;76.01
21863;BME280;11096;51.338;12.524;2023-02-17T02:09:01;100474.91;;;11.30;76.35
21863;BME280;11096;51.338;12.524;2023-02-17T02:11:27;100472.59;;;11.13;76.65
21863;BME280;11096;51.338;12.524;2023-02-17T02:13:52;100466.22;;;11.17;76.38
21863;BME280;11096;51.338;12.524;2023-02-17T02:16:34;100448.75;;;11.06;76.27
21863;BME280;11096;51.338;12.524;2023-02-17T02:19:17;100452.69;;;11.12;76.63
21863;BME280;11096;51.338;12.524;2023-02-17T02:33:46;100421.19;;;11.16;76.73
21863;BME280;11096;51.338;12.524;2023-02-17T02:36:23;100420.44;;;11.14;76.25
21863;BME280;11096;51.338;12.524;2023-02-17T02:38:58;100419.09;;;11.22;76.59
21863;BME280;11096;51.338;12.524;2023-02-17T02:41:41;100418.81;;;11.26;76.99
21863;BME280;11096;51.338;12.524;2023-02-17T02:44:11;100411.09;;;11.25;77.20
21863;BME280;11096;51.338;12.524;2023-02-17T02:46:38;100423.91;;;11.15;77.31
21863;BME280;11096;51.338;12.524;2023-02-17T02:49:03;100419.41;;;11.17;77.26
21863;BME280;11096;51.338;12.524;2023-02-17T02:57:17;100406.38;;;10.91;76.62
21863;BME280;11096;51.338;12.524;2023-02-17T03:02:28;100399.63;;;10.89;77.51
21863;BME280;11096;51.338;12.524;2023-02-17T03:10:08;100401.47;;;10.87;78.25
21863;BME280;11096;51.338;12.524;2023-02-17T03:12:35;100390.28;;;10.99;79.30
21863;BME280;11096;51.338;12.524;2023-02-17T03:15:07;100398.16;;;10.98;78.96
21863;BME280;11096;51.338;12.524;2023-02-17T03:17:34;100393.00;;;11.10;78.70
21863;BME280;11096;51.338;12.524;2023-02-17T03:20:02;100387.38;;;11.29;78.81
21863;BME280;11096;51.338;12.524;2023-02-17T03:22:32;100391.53;;;11.19;77.59
21863;BME280;11096;51.338;12.524;2023-02-17T03:24:58;100384.97;;;11.26;78.18
21863;BME280;11096;51.338;12.524;2023-02-17T03:27:25;100380.09;;;11.22;77.95
21863;BME280;11096;51.338;12.524;2023-02-17T03:29:51;100380.31;;;11.18;78.14
21863;BME280;11096;51.338;12.524;2023-02-17T03:32:17;100379.25;;;11.21;78.30
21863;BME280;11096;51.338;12.524;2023-02-17T03:34:42;100387.66;;;11.25;78.70
21863;BME280;11096;51.338;12.524;2023-02-17T03:37:08;100385.19;;;11.23;78.57
21863;BME280;11096;51.338;12.524;2023-02-17T03:39:33;100372.19;;;11.23;78.23
21863;BME280;11096;51.338;12.524;2023-02-17T03:41:58;100374.47;;;11.15;77.78
21863;BME280;11096;51.338;12.524;2023-02-17T03:44:24;100371.25;;;10.99;77.55
21863;BME280;11096;51.338;12.524;2023-02-17T03:46:49;100371.66;;;11.18;78.11
21863;BME280;11096;51.338;12.524;2023-02-17T03:49:15;100371.16;;;11.13;77.83
21863;BME280;11096;51.338;12.524;2023-02-17T03:51:40;100373.44;;;11.17;77.80
21863;BME280;11096;51.338;12.524;2023-02-17T03:54:06;100379.16;;;11.23;78.27
21863;BME280;11096;51.338;12.524;2023-02-17T03:56:31;100369.28;;;11.15;77.99
21863;BME280;11096;51.338;12.524;2023-02-17T03:58:57;100365.22;;;11.11;78.19
21863;BME280;11096;51.338;12.524;2023-02-17T04:01:22;100357.19;;;11.14;78.08
21863;BME280;11096;51.338;12.524;2023-02-17T04:03:48;100355.72;;;11.10;78.90
21863;BME280;11096;51.338;12.524;2023-02-17T04:06:14;100357.59;;;10.95;78.53
21863;BME280;11096;51.338;12.524;2023-02-17T04:08:39;100357.72;;;11.06;78.73
21863;BME280;11096;51.338;12.524;2023-02-17T04:11:06;100360.22;;;11.08;78.25
21863;BME280;11096;51.338;12.524;2023-02-17T04:13:32;100362.41;;;10.88;78.47
21863;BME280;11096;51.338;12.524;2023-02-17T04:15:58;100358.34;;;10.97;78.82
21863;BME280;11096;51.338;12.524;2023-02-17T04:18:26;100359.69;;;11.28;78.39
21863;BME280;11096;51.338;12.524;2023-02-17T04:20:52;100350.94;;;11.42;78.99
21863;BME280;11096;51.338;12.524;2023-02-17T04:23:17;100357.19;;;11.01;78.66
21863;BME280;11096;51.338;12.524;2023-02-17T04:25:43;100361.28;;;11.05;79.52
21863;BME280;11096;51.338;12.524;2023-02-17T04:28:09;100360.09;;;11.22;79.74
21863;BME280;11096;51.338;12.524;2023-02-17T04:30:34;100361.13;;;11.20;79.61
21863;BME280;11096;51.338;12.524;2023-02-17T04:33:00;100352.44;;;11.08;79.37
21863;BME280;11096;51.338;12.524;2023-02-17T04:35:26;100351.69;;;11.06;79.57
21863;BME280;11096;51.338;12.524;2023-02-17T04:37:52;100346.06;;;11.37;79.67
21863;BME280;11096;51.338;12.524;2023-02-17T04:40:17;100350.94;;;11.29;79.27
21863;BME280;11096;51.338;12.524;2023-02-17T04:42:43;100348.03;;;11.34;79.77
21863;BME280;11096;51.338;12.524;2023-02-17T04:45:09;100351.56;;;11.46;79.60
21863;BME280;11096;51.338;12.524;2023-02-17T04:47:35;100350.66;;;11.21;79.17
21863;BME280;11096;51.338;12.524;2023-02-17T04:50:00;100343.66;;;11.34;79.33
21863;BME280;11096;51.338;12.524;2023-02-17T04:52:26;100340.34;;;11.20;79.76
21863;BME280;11096;51.338;12.524;2023-02-17T04:54:51;100347.94;;;11.23;79.03
21863;BME280;11096;51.338;12.524;2023-02-17T04:57:17;100339.50;;;10.93;79.21
21863;BME280;11096;51.338;12.524;2023-02-17T04:59:42;100332.53;;;11.07;79.95
21863;BME280;11096;51.338;12.524;2023-02-17T05:02:08;100330.06;;;11.18;79.44
21863;BME280;11096;51.338;12.524;2023-02-17T05:04:33;100325.97;;;11.39;79.61
21863;BME280;11096;51.338;12.524;2023-02-17T05:06:59;100324.28;;;11.38;79.10
21863;BME280;11096;51.338;12.524;2023-02-17T05:09:24;100325.13;;;11.52;79.26
21863;BME280;11096;51.338;12.524;2023-02-17T05:11:50;100330.09;;;11.55;79.11
21863;BME280;11096;51.338;12.524;2023-02-17T05:14:15;100330.13;;;11.42;78.98
21863;BME280;11096;51.338;12.524;2023-02-17T05:16:40;100330.53;;;11.49;79.29
21863;BME280;11096;51.338;12.524;2023-02-17T05:19:06;100321.66;;;11.64;79.47
21863;BME280;11096;51.338;12.524;2023-02-17T05:21:31;100322.75;;;11.73;78.89
21863;BME280;11096;51.338;12.524;2023-02-17T05:23:57;100312.09;;;11.89;79.56
21863;BME280;11096;51.338;12.524;2023-02-17T05:26:23;100305.00;;;11.67;78.57
21863;BME280;11096;51.338;12.524;2023-02-17T05:28:48;100309.44;;;11.77;79.01
21863;BME280;11096;51.338;12.524;2023-02-17T05:31:14;100301.38;;;11.80;79.06
21863;BME280;11096;51.338;12.524;2023-02-17T05:33:40;100297.22;;;11.91;78.85
21863;BME280;11096;51.338;12.524;2023-02-17T05:36:07;100294.59;;;11.91;78.50
21863;BME280;11096;51.338;12.524;2023-02-17T05:38:33;100303.06;;;11.81;78.51
21863;BME280;11096;51.338;12.524;2023-02-17T05:40:59;100298.38;;;11.87;78.48
21863;BME280;11096;51.338;12.524;2023-02-17T05:43:24;100305.88;;;11.91;78.41
21863;BME280;11096;51.338;12.524;2023-02-17T05:45:50;100298.75;;;11.93;78.57
21863;BME280;11096;51.338;12.524;2023-02-17T05:48:15;100299.38;;;11.97;79.01
21863;BME280;11096;51.338;12.524;2023-02-17T05:50:41;100296.38;;;11.90;78.74
21863;BME280;11096;51.338;12.524;2023-02-17T05:53:06;100302.41;;;11.91;78.12
21863;BME280;11096;51.338;12.524;2023-02-17T05:55:31;100309.19;;;11.93;78.35
21863;BME280;11096;51.338;12.524;2023-02-17T05:57:57;100313.34;;;11.96;78.17
21863;BME280;11096;51.338;12.524;2023-02-17T06:00:22;100310.72;;;11.96;78.19
21863;BME280;11096;51.338;12.524;2023-02-17T06:02:48;100313.34;;;11.96;78.79
21863;BME280;11096;51.338;12.524;2023-02-17T06:05:14;100317.84;;;11.81;78.03
21863;BME280;11096;51.338;12.524;2023-02-17T06:07:40;100321.69;;;11.88;78.51
21863;BME280;11096;51.338;12.524;2023-02-17T06:10:07;100319.13;;;11.75;78.43
21863;BME280;11096;51.338;12.524;2023-02-17T06:12:32;100321.13;;;11.59;77.93
21863;BME280;11096;51.338;12.524;2023-02-17T06:14:58;100312.69;;;11.68;78.34
21863;BME280;11096;51.338;12.524;2023-02-17T06:17:23;100308.47;;;11.91;78.64
21863;BME280;11096;51.338;12.524;2023-02-17T06:19:49;100313.41;;;11.70;77.89
21863;BME280;11096;51.338;12.524;2023-02-17T06:22:14;100304.13;;;11.66;77.85
21863;BME280;11096;51.338;12.524;2023-02-17T06:24:39;100302.72;;;11.99;78.72
21863;BME280;11096;51.338;12.524;2023-02-17T06:27:05;100299.38;;;11.97;78.57
21863;BME280;11096;51.338;12.524;2023-02-17T06:29:30;100298.16;;;11.90;78.07
21863;BME280;11096;51.338;12.524;2023-02-17T06:31:56;100293.06;;;11.88;77.42
21863;BME280;11096;51.338;12.524;2023-02-17T06:34:21;100292.78;;;12.04;77.53
21863;BME280;11096;51.338;12.524;2023-02-17T06:36:47;100286.84;;;12.02;77.54
21863;BME280;11096;51.338;12.524;2023-02-17T06:39:12;100292.66;;;12.06;77.40
21863;BME280;11096;51.338;12.524;2023-02-17T06:41:37;100283.34;;;12.14;76.79
21863;BME280;11096;51.338;12.524;2023-02-17T06:44:03;100278.38;;;11.87;76.00
21863;BME280;11096;51.338;12.524;2023-02-17T06:46:29;100277.81;;;12.19;74.90
21863;BME280;11096;51.338;12.524;2023-02-17T06:48:54;100281.97;;;12.21;73.73
21863;BME280;11096;51.338;12.524;2023-02-17T06:51:20;100278.47;;;12.45;73.13
21863;BME280;11096;51.338;12.524;2023-02-17T06:53:45;100270.78;;;12.08;72.70
21863;BME280;11096;51.338;12.524;2023-02-17T06:56:11;100251.44;;;12.35;72.60
21863;BME280;11096;51.338;12.524;2023-02-17T06:58:36;100261.63;;;12.38;72.07
21863;BME280;11096;51.338;12.524;2023-02-17T07:01:02;100260.03;;;12.48;71.57
21863;BME280;11096;51.338;12.524;2023-02-17T07:03:29;100262.34;;;12.40;71.19
21863;BME280;11096;51.338;12.524;2023-02-17T07:05:58;100259.94;;;12.72;71.22
21863;BME280;11096;51.338;12.524;2023-02-17T07:08:24;100260.94;;;12.47;70.88
21863;BME280;11096;51.338;12.524;2023-02-17T07:10:50;100263.00;;;12.77;70.60
21863;BME280;11096;51.338;12.524;2023-02-17T07:13:16;100262.91;;;12.67;70.80
21863;BME280;11096;51.338;12.524;2023-02-17T07:15:41;100259.78;;;12.62;70.69
21863;BME280;11096;51.338;12.524;2023-02-17T07:18:07;100262.63;;;12.48;70.82
21863;BME280;11096;51.338;12.524;2023-02-17T07:20:32;100264.03;;;12.52;71.07
21863;BME280;11096;51.338;12.524;2023-02-17T07:22:59;100251.31;;;12.83;70.81
21863;BME280;11096;51.338;12.524;2023-02-17T07:25:25;100255.31;;;12.76;70.48
21863;BME280;11096;51.338;12.524;2023-02-17T07:27:50;100250.94;;;12.76;70.44
21863;BME280;11096;51.338;12.524;2023-02-17T07:30:16;100258.50;;;12.79;70.51
21863;BME280;11096;51.338;12.524;2023-02-17T07:32:42;100266.44;;;12.66;70.48
21863;BME280;11096;51.338;12.524;2023-02-17T07:35:07;100260.59;;;12.52;70.47
21863;BME280;11096;51.338;12.524;2023-02-17T07:37:33;100263.78;;;12.44;70.71
21863;BME280;11096;51.338;12.524;2023-02-17T07:39:59;100271.75;;;12.65;70.45
21863;BME280;11096;51.338;12.524;2023-02-17T07:42:26;100269.44;;;12.73;70.41
21863;BME280;11096;51.338;12.524;2023-02-17T07:44:51;100268.13;;;12.79;70.00
21863;BME280;11096;51.338;12.524;2023-02-17T07:47:17;100266.81;;;12.84;69.86
21863;BME280;11096;51.338;12.524;2023-02-17T07:49:42;100280.22;;;12.80;69.74
21863;BME280;11096;51.338;12.524;2023-02-17T07:52:08;100287.69;;;12.84;69.90
21863;BME280;11096;51.338;12.524;2023-02-17T07:54:33;100280.69;;;12.74;69.71
21863;BME280;11096;51.338;12.524;2023-02-17T07:56:59;100279.97;;;12.94;69.62
21863;BME280;11096;51.338;12.524;2023-02-17T07:59:25;100287.34;;;12.89;69.49
21863;BME280;11096;51.338;12.524;2023-02-17T08:01:50;100280.44;;;12.65;69.25
21863;BME280;11096;51.338;12.524;2023-02-17T08:04:16;100267.53;;;12.86;69.59
21863;BME280;11096;51.338;12.524;2023-02-17T08:06:42;100262.44;;;12.96;69.36
21863;BME280;11096;51.338;12.524;2023-02-17T08:09:09;100266.25;;;13.03;69.44
21863;BME280;11096;51.338;12.524;2023-02-17T08:11:54;100263.03;;;13.11;68.87
21863;BME280;11096;51.338;12.524;2023-02-17T08:14:38;100252.50;;;13.13;68.82
21863;BME280;11096;51.338;12.524;2023-02-17T08:17:04;100247.13;;;13.25;68.61
21863;BME280;11096;51.338;12.524;2023-02-17T08:19:30;100246.09;;;13.28;68.32
21863;BME280;11096;51.338;12.524;2023-02-17T08:21:55;100242.03;;;13.24;68.77
21863;BME280;11096;51.338;12.524;2023-02-17T08:24:21;100234.94;;;13.15;69.18
21863;BME280;11096;51.338;12.524;2023-02-17T08:26:48;100238.28;;;13.28;68.77
21863;BME280;11096;51.338;12.524;2023-02-17T08:29:13;100241.84;;;13.04;69.58
21863;BME280;11096;51.338;12.524;2023-02-17T08:31:39;100238.69;;;13.56;68.82
21863;BME280;11096;51.338;12.524;2023-02-17T08:34:08;100224.59;;;13.47;68.71
21863;BME280;11096;51.338;12.524;2023-02-17T08:36:34;100237.84;;;13.55;68.33
21863;BME280;11096;51.338;12.524;2023-02-17T08:39:02;100226.97;;;13.39;68.20
21863;BME280;11096;51.338;12.524;2023-02-17T08:41:30;100222.19;;;13.66;68.22
21863;BME280;11096;51.338;12.524;2023-02-17T08:43:58;100235.41;;;13.42;67.98
21863;BME280;11096;51.338;12.524;2023-02-17T08:46:24;100230.91;;;13.44;68.69
21863;BME280;11096;51.338;12.524;2023-02-17T08:48:50;100226.84;;;13.51;68.50
21863;BME280;11096;51.338;12.524;2023-02-17T08:51:19;100230.66;;;13.80;67.94
21863;BME280;11096;51.338;12.524;2023-02-17T08:53:51;100213.44;;;13.88;67.36
21863;BME280;11096;51.338;12.524;2023-02-17T08:56:18;100216.41;;;14.05;67.32
21863;BME280;11096;51.338;12.524;2023-02-17T08:58:44;100208.66;;;14.14;66.30
21863;BME280;11096;51.338;12.524;2023-02-17T09:01:09;100206.97;;;13.92;66.56
21863;BME280;11096;51.338;12.524;2023-02-17T09:03:36;100201.19;;;14.10;66.58
21863;BME280;11096;51.338;12.524;2023-02-17T09:06:05;100187.13;;;14.01;66.86
21863;BME280;11096;51.338;12.524;2023-02-17T09:08:31;100196.56;;;14.13;66.35
21863;BME280;11096;51.338;12.524;2023-02-17T09:10:57;100192.78;;;14.27;66.99
21863;BME280;11096;51.338;12.524;2023-02-17T09:13:23;100188.84;;;13.59;69.44
21863;BME280;11096;51.338;12.524;2023-02-17T09:15:49;100197.59;;;13.69;71.99
21863;BME280;11096;51.338;12.524;2023-02-17T09:18:18;100200.88;;;13.16;75.02
21863;BME280;11096;51.338;12.524;2023-02-17T09:20:43;100205.03;;;13.19;75.88
21863;BME280;11096;51.338;12.524;2023-02-17T09:23:09;100191.59;;;13.46;74.35
21863;BME280;11096;51.338;12.524;2023-02-17T09:25:34;100202.38;;;13.52;72.38
21863;BME280;11096;51.338;12.524;2023-02-17T09:28:00;100202.28;;;13.86;71.10
21863;BME280;11096;51.338;12.524;2023-02-17T09:30:25;100192.09;;;13.83;70.55
21863;BME280;11096;51.338;12.524;2023-02-17T09:32:50;100200.56;;;13.96;69.82
21863;BME280;11096;51.338;12.524;2023-02-17T09:35:17;100194.38;;;14.18;69.37
21863;BME280;11096;51.338;12.524;2023-02-17T09:37:43;100185.63;;;14.29;68.93
21863;BME280;11096;51.338;12.524;2023-02-17T09:40:35;100179.50;;;14.61;67.91
21863;BME280;11096;51.338;12.524;2023-02-17T09:43:03;100169.63;;;14.44;67.21
21863;BME280;11096;51.338;12.524;2023-02-17T09:45:33;100164.53;;;14.63;67.31
21863;BME280;11096;51.338;12.524;2023-02-17T09:48:03;100164.09;;;14.58;66.83
21863;BME280;11096;51.338;12.524;2023-02-17T09:50:50;100150.16;;;14.88;66.66
21863;BME280;11096;51.338;12.524;2023-02-17T09:55:57;100134.50;;;15.17;65.88
21863;BME280;11096;51.338;12.524;2023-02-17T09:58:33;100137.25;;;15.06;65.71
21863;BME280;11096;51.338;12.524;2023-02-17T10:01:04;100134.53;;;14.67;65.80
21863;BME280;11096;51.338;12.524;2023-02-17T10:03:36;100128.28;;;14.99;66.05
21863;BME280;11096;51.338;12.524;2023-02-17T10:09:09;100131.00;;;14.88;66.01
21863;BME280;11096;51.338;12.524;2023-02-17T10:11:58;100124.22;;;14.75;66.17
21863;BME280;11096;51.338;12.524;2023-02-17T10:14:32;100142.53;;;14.75;66.22
21863;BME280;11096;51.338;12.524;2023-02-17T10:17:04;100132.59;;;14.69;66.24
21863;BME280;11096;51.338;12.524;2023-02-17T10:19:46;100127.47;;;14.58;66.11
21863;BME280;11096;51.338;12.524;2023-02-17T10:22:20;100124.31;;;14.64;66.66
21863;BME280;11096;51.338;12.524;2023-02-17T10:24:46;100128.38;;;14.47;66.85
21863;BME280;11096;51.338;12.524;2023-02-17T10:32:26;100110.00;;;14.07;67.81
21863;BME280;11096;51.338;12.524;2023-02-17T10:34:56;100114.03;;;14.11;68.07
21863;BME280;11096;51.338;12.524;2023-02-17T10:37:47;100113.06;;;14.43;68.82
21863;BME280;11096;51.338;12.524;2023-02-17T10:40:19;100106.78;;;14.24;68.35
21863;BME280;11096;51.338;12.524;2023-02-17T10:42:46;100097.38;;;14.43;68.43
21863;BME280;11096;51.338;12.524;2023-02-17T10:45:27;100095.44;;;14.45;68.60
21863;BME280;11096;51.338;12.524;2023-02-17T10:48:00;100090.75;;;14.38;68.54
21863;BME280;11096;51.338;12.524;2023-02-17T10:50:27;100084.09;;;14.25;68.26
21863;BME280;11096;51.338;12.524;2023-02-17T10:52:53;100082.66;;;14.72;67.93
21863;BME280;11096;51.338;12.524;2023-02-17T10:55:22;100082.31;;;14.56;67.29
21863;BME280;11096;51.338;12.524;2023-02-17T10:58:04;100078.72;;;14.57;67.46
21863;BME280;11096;51.338;12.524;2023-02-17T11:00:31;100078.06;;;14.55;66.95
21863;BME280;11096;51.338;12.524;2023-02-17T11:02:57;100063.47;;;14.31;67.20
21863;BME280;11096;51.338;12.524;2023-02-17T11:05:29;100072.09;;;14.53;66.90
21863;BME280;11096;51.338;12.524;2023-02-17T11:08:02;100062.16;;;14.87;65.89
21863;BME280;11096;51.338;12.524;2023-02-17T11:10:32;100054.19;;;15.08;65.61
21863;BME280;11096;51.338;12.524;2023-02-17T11:12:59;100052.69;;;15.15;64.88
21863;BME280;11096;51.338;12.524;2023-02-17T11:15:31;100046.91;;;15.12;65.17
21863;BME280;11096;51.338;12.524;2023-02-17T11:18:00;100035.03;;;15.17;64.53
21863;BME280;11096;51.338;12.524;2023-02-17T11:20:32;100039.75;;;15.04;64.67
21863;BME280;11096;51.338;12.524;2023-02-17T11:23:06;100035.31;;;15.14;64.70
21863;BME280;11096;51.338;12.524;2023-02-17T11:25:34;100032.81;;;14.84;65.55
21863;BME280;11096;51.338;12.524;2023-02-17T11:28:03;100041.03;;;14.69;65.96
21863;BME280;11096;51.338;12.524;2023-02-17T11:30:32;100029.25;;;14.75;65.92
21863;BME280;11096;51.338;12.524;2023-02-17T11:33:12;100021.94;;;14.88;66.05
21863;BME280;11096;51.338;12.524;2023-02-17T11:38:15;100020.94;;;14.60;66.51
21863;BME280;11096;51.338;12.524;2023-02-17T11:40:59;100012.06;;;14.51;67.01
21863;BME280;11096;51.338;12.524;2023-02-17T11:43:26;100008.22;;;14.46;67.98
21863;BME280;11096;51.338;12.524;2023-02-17T11:54:45;99976.91;;;14.65;67.45
21863;BME280;11096;51.338;12.524;2023-02-17T12:02:26;99956.63;;;15.35;65.39
21863;BME280;11096;51.338;12.524;2023-02-17T12:05:26;99963.19;;;15.59;65.29
21863;BME280;11096;51.338;12.524;2023-02-17T12:11:03;99948.53;;;15.29;66.04
21863;BME280;11096;51.338;12.524;2023-02-17T12:17:01;99927.19;;;15.23;65.85
21863;BME280;11096;51.338;12.524;2023-02-17T12:22:41;99938.47;;;15.81;65.30
21863;BME280;11096;51.338;12.524;2023-02-17T12:25:29;99938.47;;;16.08;64.93
21863;BME280;11096;51.338;12.524;2023-02-17T12:31:08;99926.63;;;15.67;64.81
21863;BME280;11096;51.338;12.524;2023-02-17T12:36:10;99939.31;;;15.62;65.47
21863;BME280;11096;51.338;12.524;2023-02-17T12:38:57;99922.22;;;15.58;65.81
21863;BME280;11096;51.338;12.524;2023-02-17T12:42:01;99918.31;;;15.34;66.20
21863;BME280;11096;51.338;12.524;2023-02-17T12:44:23;99914.84;;;15.53;66.86
21863;BME280;11096;51.338;12.524;2023-02-17T12:47:01;99902.13;;;15.58;66.36
21863;BME280;11096;51.338;12.524;2023-02-17T12:49:36;99912.31;;;15.61;66.06
21863;BME280;11096;51.338;12.524;2023-02-17T12:52:16;99914.16;;;15.51;66.44
21863;BME280;11096;51.338;12.524;2023-02-17T12:57:48;99898.69;;;15.95;65.74
21863;BME280;11096;51.338;12.524;2023-02-17T13:00:37;99905.03;;;15.45;65.79
21863;BME280;11096;51.338;12.524;2023-02-17T13:03:04;99899.34;;;15.70;65.98
21863;BME280;11096;51.338;12.524;2023-02-17T13:05:35;99878.25;;;15.61;66.07
21863;BME280;11096;51.338;12.524;2023-02-17T13:08:19;99870.66;;;15.78;65.69
21863;BME280;11096;51.338;12.524;2023-02-17T13:10:46;99870.84;;;15.10;66.14
21863;BME280;11096;51.338;12.524;2023-02-17T13:13:25;99871.66;;;15.57;66.85
21863;BME280;11096;51.338;12.524;2023-02-17T13:16:09;99859.66;;;15.55;66.77
21863;BME280;11096;51.338;12.524;2023-02-17T13:18:37;99869.28;;;14.60;67.64
21863;BME280;11096;51.338;12.524;2023-02-17T13:26:44;99868.16;;;15.39;67.44
21863;BME280;11096;51.338;12.524;2023-02-17T13:29:20;99856.31;;;15.62;66.70
21863;BME280;11096;51.338;12.524;2023-02-17T13:31:54;99858.47;;;15.49;66.83
21863;BME280;11096;51.338;12.524;2023-02-17T13:36:59;99846.53;;;15.37;66.89
21863;BME280;11096;51.338;12.524;2023-02-17T13:41:56;99849.06;;;15.19;66.98
21863;BME280;11096;51.338;12.524;2023-02-17T13:46:52;99843.88;;;15.09;66.84
21863;BME280;11096;51.338;12.524;2023-02-17T13:49:25;99833.84;;;14.95;67.69
21863;BME280;11096;51.338;12.524;2023-02-17T13:51:52;99827.22;;;15.38;66.39
21863;BME280;11096;51.338;12.524;2023-02-17T13:54:21;99834.28;;;15.55;65.94
21863;BME280;11096;51.338;12.524;2023-02-17T13:56:51;99827.78;;;16.15;65.36
21863;BME280;11096;51.338;12.524;2023-02-17T13:59:24;99834.38;;;16.01;65.22
21863;BME280;11096;51.338;12.524;2023-02-17T14:01:51;99812.25;;;16.21;64.07
21863;BME280;11096;51.338;12.524;2023-02-17T14:04:29;99834.97;;;16.30;63.80
21863;BME280;11096;51.338;12.524;2023-02-17T14:06:59;99824.69;;;16.19;63.83
21863;BME280;11096;51.338;12.524;2023-02-17T14:09:30;99820.78;;;16.41;63.48
21863;BME280;11096;51.338;12.524;2023-02-17T14:11:57;99824.94;;;16.26;64.34
21863;BME280;11096;51.338;12.524;2023-02-17T14:14:30;99798.03;;;16.24;64.05